Airport View

Enter AWOS ICAO identifier for current METAR.

ex. KFNL

KFFM 191856Z AUTO 14007KT 10SM CLR 22/11 A2982 RMK AO2

19 Jun 2019 19:03

Frequency: 110.4

Phone: 218-736-7216

Other Area AWOS: KBWP - KY63 - KETH - KDTL

TAF KAXN 191727Z 1918/2018 11008KT P6SM SCT040 BKN250 FM200000 12007KT P6SM SCT040 BKN120 FM201600 13015G20KT P6SM VCSH OVC050